Time;durP1;ratioP1;P1;durP2;ratioP2;P2;SDS_P1;SDS_P2;PMS_P1;PMS_P2;Temp;Humidity;BMP_temperature;BMP_pressure;BME280_temperature;BME280_humidity;BME280_pressure;Samples;Min_cycle;Max_cycle;Signal;HPM_P1;HPM_P2
2021/06/08 00:01:23;;;;;;;;;8.00;8.00;;;;;17.86;59.57;100435.78;5014789;28;45638;-88
2021/06/08 00:03:48;;;;;;;;;11.25;11.25;;;;;17.84;59.99;100437.63;5032742;28;45629;-89
2021/06/08 00:06:14;;;;;;;;;12.25;11.50;;;;;17.80;60.36;100438.72;5027562;28;60198;-87
2021/06/08 00:08:39;;;;;;;;;14.50;11.50;;;;;17.74;59.96;100426.38;5026288;28;49077;-88
2021/06/08 00:11:04;;;;;;;;;16.75;10.50;;;;;17.82;59.74;100436.84;5015395;28;45541;-87
2021/06/08 00:13:30;;;;;;;;;12.25;10.25;;;;;17.83;60.26;100435.03;5027616;28;45887;-87
2021/06/08 00:15:55;;;;;;;;;9.50;9.00;;;;;17.83;59.94;100430.50;5024900;28;45423;-86
2021/06/08 00:18:21;;;;;;;;;12.25;11.50;;;;;17.84;60.22;100420.63;5049689;28;45615;-84
2021/06/08 00:20:46;;;;;;;;;9.50;9.50;;;;;17.83;60.31;100413.50;5027516;28;54492;-87
2021/06/08 00:23:11;;;;;;;;;10.50;10.50;;;;;17.81;60.25;100419.81;5046963;28;52293;-88
2021/06/08 00:25:38;;;;;;;;;10.25;8.75;;;;;17.79;60.69;100418.97;5033269;28;45658;-86
2021/06/08 00:28:04;;;;;;;;;9.00;9.00;;;;;17.71;60.70;100425.63;5020448;28;46194;-85
2021/06/08 00:30:30;;;;;;;;;13.50;11.50;;;;;17.54;60.77;100421.72;5049631;28;46076;-85
2021/06/08 00:32:55;;;;;;;;;11.25;10.00;;;;;17.52;60.82;100436.19;5012863;28;45504;-88
2021/06/08 00:35:21;;;;;;;;;12.75;12.00;;;;;17.47;60.98;100437.22;5022808;28;55884;-88
2021/06/08 00:37:46;;;;;;;;;11.25;10.75;;;;;17.44;60.86;100428.41;5015346;28;45614;-88
2021/06/08 00:40:16;;;;;;;;;10.00;10.00;;;;;17.48;61.00;100428.22;5009801;28;55184;-82
2021/06/08 00:42:41;;;;;;;;;15.25;12.00;;;;;17.43;61.12;100422.16;5047953;28;45667;-88
2021/06/08 00:45:08;;;;;;;;;12.50;10.50;;;;;17.48;61.03;100424.66;5049172;28;45595;-87
2021/06/08 00:47:33;;;;;;;;;12.00;11.00;;;;;17.50;61.00;100429.03;5016937;28;46596;-85
2021/06/08 00:49:59;;;;;;;;;14.00;11.75;;;;;17.52;60.95;100420.91;5018027;28;45561;-85
2021/06/08 00:52:24;;;;;;;;;10.25;9.75;;;;;17.52;60.80;100420.03;5025502;28;46602;-85
2021/06/08 00:54:50;;;;;;;;;13.75;10.50;;;;;17.46;60.91;100408.56;5026249;28;45581;-89
2021/06/08 00:57:15;;;;;;;;;10.25;9.25;;;;;17.50;60.95;100418.28;5052173;28;45647;-88
2021/06/08 00:59:41;;;;;;;;;12.00;9.50;;;;;17.49;61.10;100416.53;5011773;28;45588;-85
2021/06/08 01:02:06;;;;;;;;;14.00;11.00;;;;;17.44;61.34;100421.22;5012923;28;45547;-86
2021/06/08 01:04:32;;;;;;;;;9.75;9.25;;;;;17.39;61.77;100428.56;5046886;28;46033;-86
2021/06/08 01:06:58;;;;;;;;;13.75;12.00;;;;;17.25;61.84;100420.16;5006963;28;45566;-86
2021/06/08 01:09:23;;;;;;;;;12.75;10.50;;;;;17.13;61.70;100416.97;5034615;28;46383;-87
2021/06/08 01:11:49;;;;;;;;;11.75;10.75;;;;;17.15;61.68;100425.84;5041473;28;45662;-86
2021/06/08 01:14:14;;;;;;;;;12.00;10.50;;;;;17.15;62.03;100428.53;5017388;28;45696;-86
2021/06/08 01:16:40;;;;;;;;;13.75;11.00;;;;;17.16;62.19;100426.72;5019670;28;48534;-87
2021/06/08 01:19:06;;;;;;;;;13.00;11.75;;;;;17.12;62.19;100420.59;5025259;28;45519;-86
2021/06/08 01:21:33;;;;;;;;;10.00;10.00;;;;;17.16;62.30;100424.91;4993448;28;45903;-82
2021/06/08 01:23:59;;;;;;;;;13.00;11.25;;;;;17.07;62.20;100419.00;5011098;28;45573;-86
2021/06/08 01:26:27;;;;;;;;;12.00;10.50;;;;;17.02;62.14;100428.09;5023548;28;46277;-87
2021/06/08 01:28:55;;;;;;;;;10.75;10.75;;;;;16.95;62.89;100412.22;5000594;28;46178;-84
2021/06/08 01:31:23;;;;;;;;;13.75;12.25;;;;;17.00;62.38;100426.41;5003330;28;45659;-87
2021/06/08 01:33:49;;;;;;;;;15.75;12.50;;;;;17.00;62.58;100435.31;5030851;28;45528;-87
2021/06/08 01:36:17;;;;;;;;;11.75;11.00;;;;;16.97;62.66;100435.47;5012383;28;46095;-83
2021/06/08 01:38:43;;;;;;;;;16.50;13.25;;;;;16.89;62.59;100430.31;5013128;28;45538;-83
2021/06/08 01:41:12;;;;;;;;;10.75;10.75;;;;;16.87;62.67;100429.47;5011493;28;46262;-87
2021/06/08 01:43:40;;;;;;;;;12.50;11.50;;;;;16.86;62.54;100435.78;5015307;28;46766;-77
2021/06/08 01:46:05;;;;;;;;;11.00;11.00;;;;;16.86;62.80;100430.41;5015033;28;45758;-85
2021/06/08 01:48:31;;;;;;;;;12.00;12.00;;;;;16.85;62.57;100423.28;5013628;28;45671;-81
2021/06/08 01:51:07;;;;;;;;;11.75;10.50;;;;;16.80;62.51;100417.19;5026413;28;51435;-87
2021/06/08 01:53:39;;;;;;;;;11.75;10.25;;;;;16.79;62.71;100409.16;5047547;28;45564;-83
2021/06/08 01:56:10;;;;;;;;;11.75;9.75;;;;;16.83;62.79;100432.31;5047370;28;47035;-87
2021/06/08 01:58:42;;;;;;;;;15.00;13.00;;;;;16.78;62.85;100435.19;5037531;28;45530;-86
2021/06/08 02:01:22;;;;;;;;;15.50;12.75;;;;;16.71;63.41;100436.31;5034614;28;46865;-84
2021/06/08 02:04:03;;;;;;;;;12.50;10.25;;;;;16.62;63.51;100429.44;5011739;28;46693;-85
2021/06/08 02:06:33;;;;;;;;;13.00;11.25;;;;;16.56;63.66;100435.91;5045114;28;46699;-83
2021/06/08 02:09:07;;;;;;;;;11.75;11.25;;;;;16.48;63.59;100427.22;5013245;28;45663;-87
2021/06/08 02:11:48;;;;;;;;;19.50;13.00;;;;;16.47;63.72;100443.38;5049564;28;45617;-88
2021/06/08 02:14:25;;;;;;;;;13.00;11.00;;;;;16.41;63.71;100434.59;5014542;28;45768;-84
2021/06/08 02:17:18;;;;;;;;;13.00;13.00;;;;;16.42;63.80;100432.78;5030885;28;47262;-86
2021/06/08 02:19:46;;;;;;;;;17.25;15.00;;;;;16.42;63.71;100430.09;4943145;28;46114;-85
2021/06/08 02:22:13;;;;;;;;;10.75;10.75;;;;;16.41;63.70;100431.03;4944310;28;46391;-87
2021/06/08 02:24:38;;;;;;;;;14.25;14.00;;;;;16.46;63.59;100433.56;4945073;28;45484;-86
2021/06/08 02:27:07;;;;;;;;;17.50;13.75;;;;;16.46;63.59;100441.59;4943775;28;45947;-87
2021/06/08 02:29:34;;;;;;;;;15.75;12.00;;;;;16.38;63.65;100432.00;4947635;28;45573;-85
2021/06/08 02:31:59;;;;;;;;;12.25;10.25;;;;;16.41;63.61;100445.34;4957824;28;45483;-88
2021/06/08 02:34:27;;;;;;;;;16.00;12.75;;;;;16.39;63.49;100447.19;4944674;28;53116;-81
2021/06/08 02:36:53;;;;;;;;;16.50;14.00;;;;;16.36;63.62;100447.28;4959117;28;47441;-85
2021/06/08 02:39:20;;;;;;;;;12.50;12.50;;;;;16.33;63.78;100442.03;4941823;28;60667;-88
2021/06/08 02:41:45;;;;;;;;;13.25;10.25;;;;;16.36;63.57;100443.75;4946131;28;46030;-88
2021/06/08 02:44:12;;;;;;;;;17.00;15.00;;;;;16.37;63.49;100442.81;4938404;28;48313;-87
2021/06/08 02:46:38;;;;;;;;;14.25;11.75;;;;;16.36;63.56;100436.53;4944279;28;46103;-87
2021/06/08 02:49:05;;;;;;;;;18.25;16.75;;;;;16.39;63.71;100440.97;4944107;28;62314;-87
2021/06/08 02:51:31;;;;;;;;;13.25;11.75;;;;;16.37;63.57;100457.09;4947634;28;45697;-87
2021/06/08 02:53:57;;;;;;;;;16.25;16.00;;;;;16.37;63.63;100462.47;4949240;28;45642;-88
2021/06/08 02:56:22;;;;;;;;;17.00;17.00;;;;;16.32;63.67;100458.19;4976939;28;47393;-82
2021/06/08 02:58:48;;;;;;;;;15.75;14.00;;;;;16.29;63.45;100450.25;5026916;28;54376;-89
2021/06/08 03:01:15;;;;;;;;;16.50;15.00;;;;;16.34;63.60;100456.31;5047956;28;46434;-87
2021/06/08 03:03:42;;;;;;;;;17.25;13.00;;;;;16.30;63.86;100457.34;5011873;28;45597;-86
2021/06/08 03:06:39;;;;;;;;;14.50;13.75;;;;;16.29;63.93;100466.34;5039440;28;47389;-85
2021/06/08 03:09:07;;;;;;;;;14.00;14.00;;;;;16.26;63.83;100467.31;5015866;28;46080;-82
2021/06/08 03:11:40;;;;;;;;;17.00;15.00;;;;;16.27;63.77;100461.00;5028018;28;45599;-84
2021/06/08 03:14:09;;;;;;;;;19.00;15.25;;;;;16.24;63.87;100461.13;5028244;28;46104;-85
2021/06/08 03:16:37;;;;;;;;;18.25;13.75;;;;;16.25;63.94;100469.13;5017838;28;46105;-88
2021/06/08 03:19:05;;;;;;;;;14.00;14.00;;;;;16.20;63.88;100452.28;5019864;28;45870;-83
2021/06/08 03:21:35;;;;;;;;;19.00;17.00;;;;;16.25;63.86;100463.75;5025273;28;45569;-88
2021/06/08 03:24:02;;;;;;;;;15.75;12.50;;;;;16.21;63.82;100469.28;5019600;28;45612;-85
2021/06/08 03:26:29;;;;;;;;;18.75;18.00;;;;;16.12;63.95;100459.69;5049188;28;46214;-85
2021/06/08 03:28:56;;;;;;;;;11.50;11.50;;;;;16.14;63.91;100465.03;5017278;28;46057;-89
2021/06/08 03:31:22;;;;;;;;;15.75;15.75;;;;;16.02;64.56;100451.06;5012465;28;45581;-80
2021/06/08 03:33:47;;;;;;;;;18.50;17.25;;;;;15.96;64.61;100472.69;5022991;28;45606;-88
2021/06/08 03:36:13;;;;;;;;;15.75;15.50;;;;;15.83;65.02;100476.63;5028061;28;47645;-79
2021/06/08 03:38:40;;;;;;;;;18.25;14.50;;;;;15.72;65.08;100468.91;5026868;28;45596;-88
2021/06/08 03:41:05;;;;;;;;;16.00;13.00;;;;;15.70;65.28;100471.66;5016146;28;45611;-88
2021/06/08 03:43:31;;;;;;;;;18.25;13.00;;;;;15.69;65.29;100480.63;5016800;28;50221;-88
2021/06/08 03:45:57;;;;;;;;;15.50;14.25;;;;;15.60;65.18;100462.97;5015427;28;61276;-87
2021/06/08 03:48:23;;;;;;;;;19.25;16.00;;;;;15.64;64.95;100464.66;5019296;28;62273;-84
2021/06/08 03:50:49;;;;;;;;;19.75;17.75;;;;;15.73;65.10;100478.72;5035022;28;45485;-88
2021/06/08 03:53:15;;;;;;;;;15.75;15.50;;;;;15.73;65.04;100470.69;5017229;28;45698;-87
2021/06/08 03:55:41;;;;;;;;;17.25;16.25;;;;;15.70;65.08;100466.28;5027146;28;46150;-85
2021/06/08 03:58:12;;;;;;;;;17.75;16.75;;;;;15.69;65.23;100460.94;5037128;28;45755;-86
2021/06/08 04:00:39;;;;;;;;;17.50;17.00;;;;;15.76;65.13;100471.47;5047561;28;45710;-86
2021/06/08 04:03:05;;;;;;;;;23.00;18.00;;;;;15.74;65.14;100473.31;5025631;28;45509;-86
2021/06/08 04:05:31;;;;;;;;;14.50;13.50;;;;;15.71;65.16;100476.09;5031191;28;45580;-88
2021/06/08 04:07:56;;;;;;;;;18.00;14.75;;;;;15.70;65.24;100471.66;5041911;28;45547;-88
2021/06/08 04:10:22;;;;;;;;;19.50;17.50;;;;;15.68;65.26;100462.78;5027697;28;45797;-86
2021/06/08 04:12:48;;;;;;;;;16.50;16.50;;;;;15.69;65.36;100463.63;5023876;28;45444;-87
2021/06/08 04:15:14;;;;;;;;;16.75;16.50;;;;;15.70;64.89;100470.75;5006854;28;46318;-88
2021/06/08 04:17:40;;;;;;;;;15.50;14.75;;;;;15.68;65.48;100477.97;5005738;28;46038;-86
2021/06/08 04:20:08;;;;;;;;;19.50;16.50;;;;;15.66;65.76;100475.34;5005866;28;45616;-88
2021/06/08 04:22:35;;;;;;;;;17.00;15.00;;;;;15.59;65.57;100455.88;5009071;28;45557;-87
2021/06/08 04:25:01;;;;;;;;;13.75;13.75;;;;;15.70;65.55;100479.69;5021879;28;45900;-85
2021/06/08 04:27:28;;;;;;;;;17.25;16.25;;;;;15.69;65.67;100479.72;5010809;28;45781;-88
2021/06/08 04:29:54;;;;;;;;;17.00;15.00;;;;;15.69;65.23;100480.63;5001762;28;45642;-86
2021/06/08 04:32:20;;;;;;;;;18.75;16.75;;;;;15.69;65.58;100480.63;5010426;28;45939;-85
2021/06/08 04:34:51;;;;;;;;;18.75;16.50;;;;;15.60;65.75;100472.84;5009995;28;45568;-87
2021/06/08 04:37:17;;;;;;;;;18.75;18.25;;;;;15.62;65.80;100477.25;5032713;28;45558;-83
2021/06/08 04:39:43;;;;;;;;;20.75;16.00;;;;;15.61;65.92;100490.66;5020550;28;45475;-87
2021/06/08 04:42:10;;;;;;;;;19.50;16.00;;;;;15.56;65.93;100485.44;5010958;28;45483;-87
2021/06/08 04:44:36;;;;;;;;;16.25;15.75;;;;;15.58;65.92;100483.59;5004750;28;45361;-85
2021/06/08 04:47:01;;;;;;;;;17.25;13.25;;;;;15.59;66.03;100477.31;5007825;28;45439;-87
2021/06/08 04:49:27;;;;;;;;;17.75;16.50;;;;;15.62;66.05;100485.28;5025254;28;45694;-87
2021/06/08 04:51:52;;;;;;;;;24.50;21.25;;;;;15.63;66.04;100489.72;5030953;28;47456;-87
2021/06/08 04:54:25;;;;;;;;;18.25;15.75;;;;;15.61;66.15;100480.84;5023942;28;45771;-86
2021/06/08 04:56:51;;;;;;;;;19.50;16.50;;;;;15.71;65.91;100488.63;5010071;28;45537;-87
2021/06/08 04:59:20;;;;;;;;;17.00;14.25;;;;;15.70;66.13;100485.06;5005947;28;45527;-88
2021/06/08 05:01:46;;;;;;;;;17.25;14.75;;;;;15.70;66.36;100485.06;5011967;28;45898;-87
2021/06/08 05:04:14;;;;;;;;;17.50;14.75;;;;;15.77;66.12;100488.44;5028026;28;49556;-84
2021/06/08 05:06:44;;;;;;;;;17.00;16.25;;;;;15.78;66.32;100488.41;5013647;28;49897;-86
2021/06/08 05:09:19;;;;;;;;;19.75;15.25;;;;;15.72;66.00;100479.66;5008090;28;45594;-86
2021/06/08 05:11:50;;;;;;;;;16.75;15.75;;;;;15.79;66.48;100497.31;5010869;28;45502;-87
2021/06/08 05:14:16;;;;;;;;;15.25;15.00;;;;;15.82;66.23;100491.00;5023400;28;46261;-85
2021/06/08 05:16:47;;;;;;;;;16.25;15.25;;;;;15.86;66.32;100492.69;5026388;28;45498;-87
2021/06/08 05:19:12;;;;;;;;;17.50;16.00;;;;;15.91;66.08;100480.03;5010886;28;45502;-82
2021/06/08 05:21:41;;;;;;;;;18.00;16.25;;;;;15.96;66.12;100478.06;5009830;28;45494;-85
2021/06/08 05:24:07;;;;;;;;;19.00;16.25;;;;;15.97;66.03;100478.97;5030654;28;45989;-83
2021/06/08 05:26:32;;;;;;;;;13.75;13.00;;;;;15.99;65.96;100479.78;5026544;28;45599;-84
2021/06/08 05:28:58;;;;;;;;;14.25;14.25;;;;;16.12;66.18;100489.22;4999429;28;45587;-84
2021/06/08 05:31:23;;;;;;;;;16.75;14.50;;;;;16.14;66.17;100482.00;5011895;28;45439;-84
2021/06/08 05:33:49;;;;;;;;;15.00;13.25;;;;;16.22;66.04;100484.47;4980225;27;60915;-82
2021/06/08 05:36:14;;;;;;;;;17.25;12.50;;;;;16.25;65.79;100482.56;5032070;28;45592;-89
2021/06/08 05:38:46;;;;;;;;;16.75;14.25;;;;;16.34;65.65;100491.22;5029603;28;45505;-87
2021/06/08 05:41:13;;;;;;;;;14.75;14.75;;;;;16.40;65.80;100494.59;5009597;28;45306;-84
2021/06/08 05:43:40;;;;;;;;;15.00;13.50;;;;;16.44;66.39;100492.69;5016167;28;47045;-84
2021/06/08 05:46:06;;;;;;;;;13.50;12.00;;;;;16.48;65.96;100494.38;4962538;28;45663;-87
2021/06/08 05:48:33;;;;;;;;;17.75;15.00;;;;;16.49;65.64;100496.13;4958845;28;45771;-76
2021/06/08 05:51:00;;;;;;;;;15.25;13.50;;;;;16.50;65.55;100487.16;5011658;28;45578;-85
2021/06/08 05:53:26;;;;;;;;;14.00;11.25;;;;;16.61;65.39;100504.72;5005880;28;45581;-84
2021/06/08 05:55:53;;;;;;;;;16.50;15.00;;;;;16.57;65.32;100487.81;5026292;28;45371;-87
2021/06/08 05:58:29;;;;;;;;;16.50;15.25;;;;;16.68;65.21;100500.91;5013262;28;45507;-86
2021/06/08 06:00:56;;;;;;;;;13.50;13.25;;;;;16.72;65.24;100497.16;5019194;28;45466;-86
2021/06/08 06:03:23;;;;;;;;;17.50;14.00;;;;;16.75;65.18;100497.06;5010094;28;46222;-88
2021/06/08 06:05:49;;;;;;;;;18.50;13.25;;;;;16.79;65.02;100492.47;5044609;28;45470;-89
2021/06/08 06:08:15;;;;;;;;;13.50;11.25;;;;;16.81;64.87;100496.00;5029505;28;45541;-88
2021/06/08 06:10:45;;;;;;;;;17.75;15.75;;;;;16.85;64.76;100492.28;4987273;28;45332;-88
2021/06/08 06:13:23;;;;;;;;;15.00;13.75;;;;;16.96;64.88;100500.91;5031750;28;45490;-85
2021/06/08 06:15:49;;;;;;;;;21.50;15.50;;;;;17.01;64.95;100500.72;5030938;28;45602;-88
2021/06/08 06:18:16;;;;;;;;;17.50;16.25;;;;;17.04;64.69;100500.59;5032796;28;45537;-87
2021/06/08 06:20:42;;;;;;;;;18.50;15.50;;;;;17.13;64.79;100497.63;5014831;28;45421;-88
2021/06/08 06:23:09;;;;;;;;;19.50;18.25;;;;;17.18;64.00;100502.84;5012874;28;64148;-90
2021/06/08 06:25:34;;;;;;;;;19.50;12.75;;;;;17.23;64.20;100505.38;5028987;28;45802;-88
2021/06/08 06:28:00;;;;;;;;;19.25;14.25;;;;;17.29;64.51;100499.75;5013154;28;45357;-89
2021/06/08 06:30:25;;;;;;;;;12.25;11.75;;;;;17.33;64.50;100504.13;5032804;28;45309;-88
2021/06/08 06:32:51;;;;;;;;;13.25;12.50;;;;;17.34;64.45;100492.44;5037079;28;45473;-86
2021/06/08 06:35:17;;;;;;;;;19.25;17.50;;;;;17.46;64.35;100508.09;5048352;28;45614;-59
2021/06/08 06:37:43;;;;;;;;;28.25;26.00;;;;;17.54;62.84;100504.28;5034823;28;45413;-59
2021/06/08 06:40:18;;;;;;;;;17.25;16.00;;;;;17.66;63.72;100509.22;5013843;28;62337;-59
2021/06/08 06:42:46;;;;;;;;;23.50;20.00;;;;;17.76;63.21;100510.63;5003856;28;47056;-65
2021/06/08 06:45:32;;;;;;;;;25.25;16.75;;;;;17.86;63.29;100512.97;4957602;27;45463;-63
2021/06/08 06:48:04;;;;;;;;;17.75;17.25;;;;;17.85;63.11;100512.06;5016649;28;45332;-64
2021/06/08 06:50:37;;;;;;;;;17.25;14.50;;;;;17.95;63.21;100518.00;4978161;28;51443;-65
2021/06/08 06:53:03;;;;;;;;;15.25;13.25;;;;;18.03;63.54;100518.59;5030201;28;45654;-65
2021/06/08 06:55:29;;;;;;;;;16.75;15.00;;;;;18.06;63.66;100509.53;5032065;28;45562;-65
2021/06/08 06:57:55;;;;;;;;;21.00;13.25;;;;;18.19;62.62;100512.66;5032353;28;45530;-65
2021/06/08 07:00:22;;;;;;;;;17.00;16.00;;;;;18.27;62.02;100514.06;5031844;28;45380;-65
2021/06/08 07:02:48;;;;;;;;;15.75;14.50;;;;;18.28;62.28;100498.81;5032341;28;48572;-69
2021/06/08 07:05:17;;;;;;;;;19.50;16.00;;;;;18.46;62.01;100518.75;5024508;28;45791;-65
2021/06/08 07:07:43;;;;;;;;;19.50;14.50;;;;;18.55;61.91;100518.38;5019175;28;45713;-65
2021/06/08 07:10:10;;;;;;;;;18.25;13.75;;;;;18.65;62.87;100512.63;5017430;28;45385;-65
2021/06/08 07:12:39;;;;;;;;;16.75;15.50;;;;;18.78;62.15;100504.91;5034271;28;46088;-65
2021/06/08 07:15:05;;;;;;;;;14.75;14.00;;;;;18.88;61.43;100509.84;4998501;28;48176;-64
2021/06/08 07:17:32;;;;;;;;;15.75;13.75;;;;;18.95;61.91;100497.00;5026305;28;45320;-65
2021/06/08 07:19:57;;;;;;;;;15.75;15.50;;;;;19.11;61.50;100510.69;5013296;28;45554;-65
2021/06/08 07:22:23;;;;;;;;;16.50;15.00;;;;;19.21;61.30;100505.78;5033407;28;45561;-65
2021/06/08 07:24:48;;;;;;;;;17.00;12.75;;;;;19.41;61.61;100513.03;5030004;28;56374;-65
2021/06/08 07:27:14;;;;;;;;;18.50;14.50;;;;;19.54;61.06;100513.34;5033781;28;57443;-65
2021/06/08 07:29:43;;;;;;;;;13.50;13.25;;;;;19.67;60.86;100509.16;5032642;28;45392;-65
2021/06/08 07:32:20;;;;;;;;;19.50;15.25;;;;;19.79;60.06;100509.53;5015390;28;46177;-65
2021/06/08 07:34:55;;;;;;;;;19.50;13.75;;;;;19.93;60.21;100508.94;5014032;28;46068;-65
2021/06/08 07:37:22;;;;;;;;;22.50;15.75;;;;;20.06;59.10;100510.09;5013606;28;45483;-64
2021/06/08 07:39:50;;;;;;;;;16.25;14.50;;;;;20.15;58.53;100508.81;5012688;28;47104;-66
2021/06/08 07:42:19;;;;;;;;;17.50;17.50;;;;;20.26;58.87;100509.16;5025969;28;46276;-64
2021/06/08 07:45:01;;;;;;;;;19.75;15.50;;;;;20.39;59.23;100501.34;4920333;28;45603;-65
2021/06/08 07:47:30;;;;;;;;;16.25;15.50;;;;;20.51;59.01;100508.00;5023745;28;45641;-65
2021/06/08 07:49:57;;;;;;;;;20.50;15.25;;;;;20.63;58.16;100509.19;5014320;28;45432;-65
2021/06/08 07:52:24;;;;;;;;;15.75;13.50;;;;;20.73;58.17;100502.38;5030654;28;46448;-65
2021/06/08 07:54:49;;;;;;;;;25.25;21.50;;;;;20.85;57.04;100498.22;4959950;28;45408;-65
2021/06/08 07:57:15;;;;;;;;;15.75;14.75;;;;;20.96;58.22;100494.97;5033230;28;45471;-65
2021/06/08 07:59:41;;;;;;;;;19.50;18.00;;;;;21.08;56.83;100495.31;5033395;28;45588;-65
2021/06/08 08:02:09;;;;;;;;;20.50;16.50;;;;;21.15;56.17;100494.91;5015423;28;47076;-65
2021/06/08 08:04:40;;;;;;;;;18.25;15.50;;;;;21.29;57.17;100502.31;5031542;28;45763;-65
2021/06/08 08:07:06;;;;;;;;;18.00;15.75;;;;;21.42;56.89;100498.97;5013463;28;45360;-65
2021/06/08 08:09:32;;;;;;;;;17.25;14.75;;;;;21.52;56.38;100501.09;5030878;28;45567;-64
2021/06/08 08:11:58;;;;;;;;;16.50;14.50;;;;;21.68;56.87;100505.72;5026627;28;46491;-65
2021/06/08 08:14:24;;;;;;;;;18.50;15.50;;;;;21.80;55.44;100496.03;5010659;28;45584;-65
2021/06/08 08:16:50;;;;;;;;;16.50;14.50;;;;;21.91;55.67;100500.84;5031554;28;45294;-65
2021/06/08 08:19:17;;;;;;;;;13.25;11.75;;;;;22.00;56.11;100492.25;5033138;28;45488;-65
2021/06/08 08:21:43;;;;;;;;;14.50;13.75;;;;;22.14;55.85;100495.03;5026719;28;46298;-64
2021/06/08 08:24:08;;;;;;;;;14.75;12.50;;;;;22.21;55.81;100484.75;5038267;28;45956;-64
2021/06/08 08:26:34;;;;;;;;;16.75;14.75;;;;;22.35;55.44;100488.50;5014959;28;45667;-64
2021/06/08 08:29:01;;;;;;;;;15.00;12.00;;;;;22.46;55.24;100488.81;5028815;28;45680;-65
2021/06/08 08:31:29;;;;;;;;;20.75;15.50;;;;;22.56;54.55;100481.00;5029886;28;46344;-65
2021/06/08 08:33:56;;;;;;;;;15.75;14.00;;;;;22.67;54.69;100485.81;5029348;28;45407;-65
2021/06/08 08:36:21;;;;;;;;;17.50;17.50;;;;;22.70;51.72;100470.22;5029876;28;45604;-64
2021/06/08 08:38:47;;;;;;;;;17.75;14.00;;;;;22.78;52.25;100477.91;5028858;28;45499;-64
2021/06/08 08:41:12;;;;;;;;;13.75;13.50;;;;;22.84;52.41;100484.81;5026151;28;45892;-64
2021/06/08 08:43:45;;;;;;;;;15.75;15.50;;;;;22.75;51.84;100442.81;5030913;28;45526;-64
2021/06/08 08:46:11;;;;;;;;;15.50;13.75;;;;;23.08;52.05;100484.28;5027703;28;45943;-65
2021/06/08 08:48:39;;;;;;;;;15.00;15.00;;;;;23.20;52.99;100487.19;5029300;28;45554;-65
2021/06/08 08:51:05;;;;;;;;;16.50;15.00;;;;;23.38;52.56;100483.44;5027734;28;47182;-65
2021/06/08 08:53:31;;;;;;;;;17.00;16.25;;;;;23.47;51.65;100482.88;5051537;28;45991;-65
2021/06/08 08:55:57;;;;;;;;;16.50;14.25;;;;;23.58;51.08;100483.09;5036950;28;45696;-65
2021/06/08 08:58:24;;;;;;;;;19.75;17.50;;;;;23.68;49.55;100480.66;5011353;28;45479;-64
2021/06/08 09:00:50;;;;;;;;;18.25;15.25;;;;;23.70;48.44;100486.00;5029670;28;46165;-65
2021/06/08 09:03:15;;;;;;;;;16.75;15.25;;;;;23.70;48.62;100475.13;5029577;28;45554;-65
2021/06/08 09:05:42;;;;;;;;;11.00;10.25;;;;;23.83;49.91;100481.53;5037410;28;45603;-64
2021/06/08 09:08:09;;;;;;;;;15.50;12.75;;;;;23.92;50.05;100483.66;5029301;28;45799;-65
2021/06/08 09:10:36;;;;;;;;;11.50;10.00;;;;;24.05;49.16;100486.50;5027524;28;46338;-64
2021/06/08 09:13:02;;;;;;;;;12.75;12.25;;;;;24.14;49.74;100468.72;5028646;28;45583;-65
2021/06/08 09:15:28;;;;;;;;;14.75;12.00;;;;;24.20;48.83;100471.03;5030416;28;45483;-63
2021/06/08 09:17:56;;;;;;;;;21.00;11.75;;;;;24.27;47.11;100466.94;5029776;28;45708;-64
2021/06/08 09:20:21;;;;;;;;;16.25;14.25;;;;;24.24;46.64;100461.69;5057149;28;45907;-64
2021/06/08 09:22:49;;;;;;;;;12.50;12.00;;;;;24.34;45.60;100466.56;5037388;28;46134;-64
2021/06/08 09:25:33;;;;;;;;;13.50;11.00;;;;;24.37;46.84;100466.31;5028412;28;45775;-64
2021/06/08 09:28:15;;;;;;;;;12.00;11.75;;;;;24.44;47.12;100465.81;5011835;28;45559;-65
2021/06/08 09:30:41;;;;;;;;;10.00;10.00;;;;;24.51;48.15;100446.38;5025244;28;46116;-64
2021/06/08 09:33:18;;;;;;;;;11.25;11.25;;;;;24.68;47.75;100454.31;5029527;28;51825;-64
2021/06/08 09:35:55;;;;;;;;;12.25;11.25;;;;;24.70;46.81;100449.66;5028398;28;45766;-65
2021/06/08 09:38:21;;;;;;;;;17.00;13.50;;;;;24.80;45.08;100460.75;5053808;27;47832;-65
2021/06/08 09:40:47;;;;;;;;;13.00;11.25;;;;;24.85;46.03;100458.63;5027010;28;46993;-65
2021/06/08 09:43:14;;;;;;;;;13.00;10.00;;;;;24.95;48.06;100456.13;5017461;28;45579;-68
2021/06/08 09:45:40;;;;;;;;;9.25;9.00;;;;;25.03;44.45;100456.47;5022511;28;45553;-65
2021/06/08 09:48:06;;;;;;;;;12.25;11.00;;;;;25.12;45.00;100454.09;5005480;28;46480;-65
2021/06/08 09:50:40;;;;;;;;;10.00;9.00;;;;;25.17;44.82;100452.81;5024422;28;45915;-65
2021/06/08 09:53:23;;;;;;;;;8.75;8.25;;;;;25.32;44.45;100460.84;5037044;28;46034;-64
2021/06/08 09:55:56;;;;;;;;;10.00;9.00;;;;;25.41;44.32;100451.22;5029053;28;45646;-64
2021/06/08 09:58:22;;;;;;;;;8.50;8.50;;;;;25.49;44.51;100460.59;5027873;28;45721;-64
2021/06/08 10:01:07;;;;;;;;;11.25;9.25;;;;;25.57;43.46;100445.53;5030534;28;46012;-64
2021/06/08 10:03:36;;;;;;;;;10.75;9.25;;;;;25.70;43.43;100456.41;5030863;28;45838;-64
2021/06/08 10:06:12;;;;;;;;;7.00;7.00;;;;;25.83;45.52;100449.97;5032501;28;45809;-64
2021/06/08 10:08:38;;;;;;;;;10.25;9.00;;;;;25.97;44.22;100443.53;5031588;28;45547;-64
2021/06/08 10:11:14;;;;;;;;;8.00;8.00;;;;;26.06;44.84;100439.25;5031756;28;46234;-64
2021/06/08 10:13:39;;;;;;;;;6.25;6.25;;;;;26.30;42.24;100454.81;5054888;28;45625;-64
2021/06/08 10:16:08;;;;;;;;;27.75;26.75;;;;;26.40;42.34;100452.28;5030967;28;45694;-64
2021/06/08 10:18:41;;;;;;;;;13.00;11.25;;;;;26.55;41.23;100447.50;5028911;28;45504;-63
2021/06/08 10:21:06;;;;;;;;;10.00;8.00;;;;;26.69;40.49;100443.72;5032066;28;46347;-62
2021/06/08 10:23:33;;;;;;;;;4.50;3.50;;;;;26.68;40.54;100444.72;5031481;28;54617;-63
2021/06/08 10:26:05;;;;;;;;;12.75;8.00;;;;;26.44;40.33;100443.75;5032537;28;45496;-63
2021/06/08 10:28:30;;;;;;;;;23.50;22.00;;;;;26.28;41.96;100443.13;5029397;28;45660;-64
2021/06/08 10:31:00;;;;;;;;;17.50;17.50;;;;;26.41;41.25;100443.97;5031602;28;46184;-63
2021/06/08 10:33:26;;;;;;;;;13.75;12.75;;;;;26.47;40.94;100445.34;5032817;28;45507;-63
2021/06/08 10:35:53;;;;;;;;;14.50;11.00;;;;;26.52;41.39;100445.00;5030944;28;46089;-63
2021/06/08 10:38:19;;;;;;;;;8.00;8.00;;;;;26.61;40.07;100436.97;5031579;28;45513;-64
2021/06/08 10:40:48;;;;;;;;;9.00;8.25;;;;;26.66;39.45;100431.19;5030551;28;46148;-64
2021/06/08 10:43:40;;;;;;;;;11.00;10.50;;;;;26.78;38.55;100439.44;5029543;28;45936;-66
2021/06/08 10:46:16;;;;;;;;;15.00;12.00;;;;;26.85;39.48;100427.06;5022711;28;57071;-64
2021/06/08 10:48:46;;;;;;;;;10.75;9.00;;;;;26.99;39.94;100423.25;5027185;28;45831;-64
2021/06/08 10:51:14;;;;;;;;;9.00;9.00;;;;;27.19;40.30;100417.09;5018600;28;46761;-63
2021/06/08 10:53:42;;;;;;;;;10.25;9.00;;;;;27.38;38.39;100424.72;5019129;28;51571;-64
2021/06/08 10:56:37;;;;;;;;;9.75;9.50;;;;;27.59;38.70;100429.50;5032685;28;45637;-64
2021/06/08 10:59:04;;;;;;;;;13.00;12.00;;;;;27.71;39.20;100434.97;4968990;28;45668;-63
2021/06/08 11:01:40;;;;;;;;;9.00;8.00;;;;;27.81;37.65;100435.94;4968803;28;45843;-63
2021/06/08 11:04:18;;;;;;;;;20.00;18.50;;;;;28.07;37.91;100419.25;4968261;28;45575;-63
2021/06/08 11:06:49;;;;;;;;;16.50;16.00;;;;;28.28;37.45;100424.84;4954515;28;45695;-63
2021/06/08 11:09:31;;;;;;;;;15.25;14.25;;;;;28.26;36.80;100424.94;4969786;28;45673;-63
2021/06/08 11:11:58;;;;;;;;;21.50;18.50;;;;;28.39;36.61;100427.56;4968169;28;47105;-68
2021/06/08 11:14:42;;;;;;;;;16.50;16.50;;;;;28.53;36.96;100422.75;4952958;28;46636;-64
2021/06/08 11:17:13;;;;;;;;;13.75;12.00;;;;;28.69;36.55;100422.31;4966347;28;45554;-63